sensor_id;sensor_type;location;lat;lon;timestamp;pressure;altitude;pressure_sealevel;temperature;humidity
79705;BME280;69940;53.120;8.764;2023-07-28T00:00:46;100262.00;;;18.80;90.48
79705;BME280;69940;53.120;8.764;2023-07-28T00:03:15;100262.00;;;18.80;90.45
79705;BME280;69940;53.120;8.764;2023-07-28T00:05:46;100263.00;;;18.80;90.47
79705;BME280;69940;53.120;8.764;2023-07-28T00:08:16;100263.00;;;18.80;90.48
79705;BME280;69940;53.120;8.764;2023-07-28T00:10:45;100263.00;;;18.79;90.47
79705;BME280;69940;53.120;8.764;2023-07-28T00:13:16;100263.00;;;18.79;90.41
79705;BME280;69940;53.120;8.764;2023-07-28T00:15:46;100262.00;;;18.78;90.47
79705;BME280;69940;53.120;8.764;2023-07-28T00:18:16;100262.00;;;18.78;90.44
79705;BME280;69940;53.120;8.764;2023-07-28T00:20:46;100261.00;;;18.78;90.47
79705;BME280;69940;53.120;8.764;2023-07-28T00:23:16;100263.00;;;18.77;90.48
79705;BME280;69940;53.120;8.764;2023-07-28T00:25:46;100263.00;;;18.77;90.47
79705;BME280;69940;53.120;8.764;2023-07-28T00:28:16;100266.00;;;18.76;90.45
79705;BME280;69940;53.120;8.764;2023-07-28T00:30:48;100268.00;;;18.76;90.51
79705;BME280;69940;53.120;8.764;2023-07-28T00:33:16;100269.00;;;18.76;90.41
79705;BME280;69940;53.120;8.764;2023-07-28T00:35:46;100271.00;;;18.76;90.34
79705;BME280;69940;53.120;8.764;2023-07-28T00:38:15;100271.00;;;18.75;90.36
79705;BME280;69940;53.120;8.764;2023-07-28T00:40:46;100269.00;;;18.75;90.32
79705;BME280;69940;53.120;8.764;2023-07-28T00:43:16;100270.00;;;18.74;90.31
79705;BME280;69940;53.120;8.764;2023-07-28T00:45:45;100268.00;;;18.74;90.30
79705;BME280;69940;53.120;8.764;2023-07-28T00:48:17;100267.00;;;18.73;90.35
79705;BME280;69940;53.120;8.764;2023-07-28T00:50:47;100266.00;;;18.73;90.23
79705;BME280;69940;53.120;8.764;2023-07-28T00:53:16;100265.00;;;18.72;90.25
79705;BME280;69940;53.120;8.764;2023-07-28T00:55:46;100266.00;;;18.72;90.22
79705;BME280;69940;53.120;8.764;2023-07-28T00:58:15;100266.00;;;18.72;90.18
79705;BME280;69940;53.120;8.764;2023-07-28T01:00:46;100266.00;;;18.71;90.19
79705;BME280;69940;53.120;8.764;2023-07-28T01:03:18;100265.00;;;18.71;90.22
79705;BME280;69940;53.120;8.764;2023-07-28T01:08:21;100263.00;;;18.71;90.11
79705;BME280;69940;53.120;8.764;2023-07-28T01:10:46;100263.00;;;18.71;90.11
79705;BME280;69940;53.120;8.764;2023-07-28T01:13:16;100263.00;;;18.71;90.08
79705;BME280;69940;53.120;8.764;2023-07-28T01:15:46;100262.00;;;18.70;90.10
79705;BME280;69940;53.120;8.764;2023-07-28T01:18:16;100261.00;;;18.70;90.07
79705;BME280;69940;53.120;8.764;2023-07-28T01:20:50;100262.00;;;18.70;90.01
79705;BME280;69940;53.120;8.764;2023-07-28T01:23:23;100263.00;;;18.70;90.03
79705;BME280;69940;53.120;8.764;2023-07-28T01:26:06;100264.00;;;18.70;89.99
79705;BME280;69940;53.120;8.764;2023-07-28T01:28:17;100264.00;;;18.70;89.98
79705;BME280;69940;53.120;8.764;2023-07-28T01:30:46;100264.00;;;18.70;89.93
79705;BME280;69940;53.120;8.764;2023-07-28T01:33:15;100265.00;;;18.70;89.96
79705;BME280;69940;53.120;8.764;2023-07-28T01:35:46;100265.00;;;18.70;89.96
79705;BME280;69940;53.120;8.764;2023-07-28T01:38:17;100264.00;;;18.70;89.92
79705;BME280;69940;53.120;8.764;2023-07-28T01:40:46;100265.00;;;18.70;89.86
79705;BME280;69940;53.120;8.764;2023-07-28T01:43:16;100265.00;;;18.69;89.89
79705;BME280;69940;53.120;8.764;2023-07-28T01:45:45;100266.00;;;18.69;89.90
79705;BME280;69940;53.120;8.764;2023-07-28T01:48:16;100267.00;;;18.69;89.95
79705;BME280;69940;53.120;8.764;2023-07-28T01:50:45;100267.00;;;18.69;89.93
79705;BME280;69940;53.120;8.764;2023-07-28T01:53:16;100268.00;;;18.69;89.94
79705;BME280;69940;53.120;8.764;2023-07-28T01:55:46;100268.00;;;18.69;89.91
79705;BME280;69940;53.120;8.764;2023-07-28T01:58:15;100268.00;;;18.69;89.95
79705;BME280;69940;53.120;8.764;2023-07-28T02:00:47;100270.00;;;18.69;89.98
79705;BME280;69940;53.120;8.764;2023-07-28T02:03:15;100272.00;;;18.69;90.06
79705;BME280;69940;53.120;8.764;2023-07-28T02:05:46;100274.00;;;18.69;90.04
79705;BME280;69940;53.120;8.764;2023-07-28T02:08:15;100273.00;;;18.69;90.02
79705;BME280;69940;53.120;8.764;2023-07-28T02:10:46;100273.00;;;18.69;90.04
79705;BME280;69940;53.120;8.764;2023-07-28T02:13:16;100273.00;;;18.69;89.98
79705;BME280;69940;53.120;8.764;2023-07-28T02:15:45;100274.00;;;18.69;90.07
79705;BME280;69940;53.120;8.764;2023-07-28T02:18:16;100276.00;;;18.69;90.05
79705;BME280;69940;53.120;8.764;2023-07-28T02:20:47;100277.00;;;18.69;90.11
79705;BME280;69940;53.120;8.764;2023-07-28T02:23:16;100279.00;;;18.69;90.12
79705;BME280;69940;53.120;8.764;2023-07-28T02:25:49;100280.00;;;18.70;90.16
79705;BME280;69940;53.120;8.764;2023-07-28T02:28:16;100283.00;;;18.70;90.15
79705;BME280;69940;53.120;8.764;2023-07-28T02:30:46;100285.00;;;18.70;90.17
79705;BME280;69940;53.120;8.764;2023-07-28T02:33:15;100287.00;;;18.71;90.15
79705;BME280;69940;53.120;8.764;2023-07-28T02:35:46;100289.00;;;18.71;90.14
79705;BME280;69940;53.120;8.764;2023-07-28T02:38:16;100291.00;;;18.71;90.11
79705;BME280;69940;53.120;8.764;2023-07-28T02:40:46;100292.00;;;18.72;90.14
79705;BME280;69940;53.120;8.764;2023-07-28T02:43:16;100293.00;;;18.72;90.18
79705;BME280;69940;53.120;8.764;2023-07-28T02:45:52;100294.00;;;18.73;90.22
79705;BME280;69940;53.120;8.764;2023-07-28T02:48:17;100295.00;;;18.73;90.24
79705;BME280;69940;53.120;8.764;2023-07-28T02:50:46;100295.00;;;18.73;90.30
79705;BME280;69940;53.120;8.764;2023-07-28T02:53:16;100297.00;;;18.74;90.31
79705;BME280;69940;53.120;8.764;2023-07-28T02:55:47;100296.00;;;18.73;90.34
79705;BME280;69940;53.120;8.764;2023-07-28T02:58:16;100297.00;;;18.73;90.38
79705;BME280;69940;53.120;8.764;2023-07-28T03:00:47;100296.00;;;18.74;90.32
79705;BME280;69940;53.120;8.764;2023-07-28T03:03:15;100296.00;;;18.74;90.24
79705;BME280;69940;53.120;8.764;2023-07-28T03:05:46;100295.00;;;18.73;90.22
79705;BME280;69940;53.120;8.764;2023-07-28T03:08:16;100294.00;;;18.73;90.21
79705;BME280;69940;53.120;8.764;2023-07-28T03:10:46;100295.00;;;18.74;90.21
79705;BME280;69940;53.120;8.764;2023-07-28T03:13:16;100297.00;;;18.74;90.21
79705;BME280;69940;53.120;8.764;2023-07-28T03:15:45;100299.00;;;18.74;90.20
79705;BME280;69940;53.120;8.764;2023-07-28T03:18:16;100303.00;;;18.75;90.24
79705;BME280;69940;53.120;8.764;2023-07-28T03:20:46;100303.00;;;18.75;90.18
79705;BME280;69940;53.120;8.764;2023-07-28T03:23:16;100303.00;;;18.76;90.24
79705;BME280;69940;53.120;8.764;2023-07-28T03:25:46;100304.00;;;18.76;90.26
79705;BME280;69940;53.120;8.764;2023-07-28T03:28:15;100305.00;;;18.76;90.20
79705;BME280;69940;53.120;8.764;2023-07-28T03:30:46;100307.00;;;18.76;90.17
79705;BME280;69940;53.120;8.764;2023-07-28T03:33:16;100308.00;;;18.76;90.17
79705;BME280;69940;53.120;8.764;2023-07-28T03:35:45;100312.00;;;18.76;90.23
79705;BME280;69940;53.120;8.764;2023-07-28T03:38:15;100311.00;;;18.77;90.31
79705;BME280;69940;53.120;8.764;2023-07-28T03:40:46;100311.00;;;18.76;90.40
79705;BME280;69940;53.120;8.764;2023-07-28T03:43:15;100310.00;;;18.76;90.42
79705;BME280;69940;53.120;8.764;2023-07-28T03:45:46;100311.00;;;18.76;90.56
79705;BME280;69940;53.120;8.764;2023-07-28T03:48:16;100310.00;;;18.75;90.60
79705;BME280;69940;53.120;8.764;2023-07-28T03:50:45;100312.00;;;18.75;90.60
79705;BME280;69940;53.120;8.764;2023-07-28T03:53:16;100313.00;;;18.75;90.55
79705;BME280;69940;53.120;8.764;2023-07-28T03:55:45;100314.00;;;18.74;90.66
79705;BME280;69940;53.120;8.764;2023-07-28T03:58:16;100315.00;;;18.74;90.69
79705;BME280;69940;53.120;8.764;2023-07-28T04:00:46;100316.00;;;18.73;90.71
79705;BME280;69940;53.120;8.764;2023-07-28T04:03:16;100318.00;;;18.73;90.63
79705;BME280;69940;53.120;8.764;2023-07-28T04:05:46;100321.00;;;18.72;90.62
79705;BME280;69940;53.120;8.764;2023-07-28T04:08:16;100323.00;;;18.72;90.59
79705;BME280;69940;53.120;8.764;2023-07-28T04:10:46;100325.00;;;18.72;90.54
79705;BME280;69940;53.120;8.764;2023-07-28T04:13:16;100327.00;;;18.72;90.56
79705;BME280;69940;53.120;8.764;2023-07-28T04:15:46;100327.00;;;18.72;90.48
79705;BME280;69940;53.120;8.764;2023-07-28T04:18:16;100329.00;;;18.72;90.45
79705;BME280;69940;53.120;8.764;2023-07-28T04:20:46;100330.00;;;18.73;90.45
79705;BME280;69940;53.120;8.764;2023-07-28T04:23:16;100331.00;;;18.73;90.46
79705;BME280;69940;53.120;8.764;2023-07-28T04:25:46;100331.00;;;18.74;90.44
79705;BME280;69940;53.120;8.764;2023-07-28T04:28:16;100332.00;;;18.74;90.49
79705;BME280;69940;53.120;8.764;2023-07-28T04:30:46;100334.00;;;18.74;90.56
79705;BME280;69940;53.120;8.764;2023-07-28T04:33:15;100335.00;;;18.75;90.55
79705;BME280;69940;53.120;8.764;2023-07-28T04:35:46;100338.00;;;18.76;90.59
79705;BME280;69940;53.120;8.764;2023-07-28T04:38:15;100341.00;;;18.76;90.63
79705;BME280;69940;53.120;8.764;2023-07-28T04:40:46;100345.00;;;18.77;90.67
79705;BME280;69940;53.120;8.764;2023-07-28T04:43:16;100349.00;;;18.78;90.67
79705;BME280;69940;53.120;8.764;2023-07-28T04:45:46;100352.00;;;18.78;90.66
79705;BME280;69940;53.120;8.764;2023-07-28T04:48:16;100354.00;;;18.79;90.64
79705;BME280;69940;53.120;8.764;2023-07-28T04:50:46;100355.00;;;18.79;90.57
79705;BME280;69940;53.120;8.764;2023-07-28T04:53:16;100357.00;;;18.78;90.56
79705;BME280;69940;53.120;8.764;2023-07-28T04:55:46;100359.00;;;18.78;90.51
79705;BME280;69940;53.120;8.764;2023-07-28T04:58:16;100360.00;;;18.78;90.49
79705;BME280;69940;53.120;8.764;2023-07-28T05:00:45;100362.00;;;18.78;90.34
79705;BME280;69940;53.120;8.764;2023-07-28T05:03:16;100363.00;;;18.78;90.27
79705;BME280;69940;53.120;8.764;2023-07-28T05:05:46;100365.00;;;18.77;90.22
79705;BME280;69940;53.120;8.764;2023-07-28T05:08:15;100367.00;;;18.77;90.14
79705;BME280;69940;53.120;8.764;2023-07-28T05:10:46;100369.00;;;18.77;90.09
79705;BME280;69940;53.120;8.764;2023-07-28T05:13:16;100371.00;;;18.77;90.10
79705;BME280;69940;53.120;8.764;2023-07-28T05:15:45;100373.00;;;18.77;90.07
79705;BME280;69940;53.120;8.764;2023-07-28T05:18:16;100375.00;;;18.77;89.97
79705;BME280;69940;53.120;8.764;2023-07-28T05:20:46;100378.00;;;18.77;89.94
79705;BME280;69940;53.120;8.764;2023-07-28T05:23:16;100379.00;;;18.77;89.87
79705;BME280;69940;53.120;8.764;2023-07-28T05:25:45;100380.00;;;18.77;89.76
79705;BME280;69940;53.120;8.764;2023-07-28T05:28:16;100381.00;;;18.77;89.78
79705;BME280;69940;53.120;8.764;2023-07-28T05:30:46;100383.00;;;18.77;89.76
79705;BME280;69940;53.120;8.764;2023-07-28T05:33:16;100385.00;;;18.77;89.78
79705;BME280;69940;53.120;8.764;2023-07-28T05:35:46;100386.00;;;18.77;89.89
79705;BME280;69940;53.120;8.764;2023-07-28T05:38:15;100387.00;;;18.76;89.81
79705;BME280;69940;53.120;8.764;2023-07-28T05:40:46;100387.00;;;18.76;89.84
79705;BME280;69940;53.120;8.764;2023-07-28T05:43:16;100389.00;;;18.76;89.91
79705;BME280;69940;53.120;8.764;2023-07-28T05:45:46;100389.00;;;18.75;89.97
79705;BME280;69940;53.120;8.764;2023-07-28T05:48:16;100390.00;;;18.75;90.06
79705;BME280;69940;53.120;8.764;2023-07-28T05:50:46;100392.00;;;18.74;90.16
79705;BME280;69940;53.120;8.764;2023-07-28T05:53:16;100394.00;;;18.74;90.16
79705;BME280;69940;53.120;8.764;2023-07-28T05:55:46;100395.00;;;18.75;90.09
79705;BME280;69940;53.120;8.764;2023-07-28T05:58:16;100397.00;;;18.77;90.04
79705;BME280;69940;53.120;8.764;2023-07-28T06:00:46;100397.00;;;18.79;89.93
79705;BME280;69940;53.120;8.764;2023-07-28T06:03:16;100398.00;;;18.80;89.97
79705;BME280;69940;53.120;8.764;2023-07-28T06:05:46;100400.00;;;18.81;90.07
79705;BME280;69940;53.120;8.764;2023-07-28T06:08:16;100401.00;;;18.81;90.07
79705;BME280;69940;53.120;8.764;2023-07-28T06:10:46;100403.00;;;18.81;90.15
79705;BME280;69940;53.120;8.764;2023-07-28T06:13:16;100405.00;;;18.81;90.13
79705;BME280;69940;53.120;8.764;2023-07-28T06:15:46;100407.00;;;18.81;90.12
79705;BME280;69940;53.120;8.764;2023-07-28T06:18:17;100408.00;;;18.80;90.13
79705;BME280;69940;53.120;8.764;2023-07-28T06:20:46;100410.00;;;18.80;90.18
79705;BME280;69940;53.120;8.764;2023-07-28T06:23:16;100411.00;;;18.80;90.21
79705;BME280;69940;53.120;8.764;2023-07-28T06:25:47;100414.00;;;18.80;90.24
79705;BME280;69940;53.120;8.764;2023-07-28T06:28:15;100416.00;;;18.82;90.28
79705;BME280;69940;53.120;8.764;2023-07-28T06:30:46;100416.00;;;18.84;90.31
79705;BME280;69940;53.120;8.764;2023-07-28T06:33:16;100418.00;;;18.88;90.26
79705;BME280;69940;53.120;8.764;2023-07-28T06:35:46;100419.00;;;18.93;90.20
79705;BME280;69940;53.120;8.764;2023-07-28T06:38:16;100422.00;;;18.98;90.24
79705;BME280;69940;53.120;8.764;2023-07-28T06:40:46;100423.00;;;19.02;90.26
79705;BME280;69940;53.120;8.764;2023-07-28T06:43:16;100424.00;;;19.07;90.15
79705;BME280;69940;53.120;8.764;2023-07-28T06:45:46;100426.00;;;19.12;90.14
79705;BME280;69940;53.120;8.764;2023-07-28T06:48:17;100427.00;;;19.18;90.04
79705;BME280;69940;53.120;8.764;2023-07-28T06:50:46;100430.00;;;19.24;89.92
79705;BME280;69940;53.120;8.764;2023-07-28T06:53:16;100432.00;;;19.30;89.77
79705;BME280;69940;53.120;8.764;2023-07-28T06:55:46;100434.00;;;19.34;89.72
79705;BME280;69940;53.120;8.764;2023-07-28T06:58:16;100436.00;;;19.36;89.80
79705;BME280;69940;53.120;8.764;2023-07-28T07:00:46;100437.00;;;19.38;89.75
79705;BME280;69940;53.120;8.764;2023-07-28T07:03:16;100439.00;;;19.38;89.71
79705;BME280;69940;53.120;8.764;2023-07-28T07:05:46;100442.00;;;19.38;89.76
79705;BME280;69940;53.120;8.764;2023-07-28T07:08:15;100443.00;;;19.38;89.83
79705;BME280;69940;53.120;8.764;2023-07-28T07:10:50;100446.00;;;19.37;89.88
79705;BME280;69940;53.120;8.764;2023-07-28T07:13:16;100448.00;;;19.37;89.90
79705;BME280;69940;53.120;8.764;2023-07-28T07:15:46;100448.00;;;19.38;89.90
79705;BME280;69940;53.120;8.764;2023-07-28T07:18:16;100449.00;;;19.39;89.78
79705;BME280;69940;53.120;8.764;2023-07-28T07:20:46;100450.00;;;19.41;89.73
79705;BME280;69940;53.120;8.764;2023-07-28T07:23:16;100451.00;;;19.42;89.68
79705;BME280;69940;53.120;8.764;2023-07-28T07:25:48;100452.00;;;19.42;89.69
79705;BME280;69940;53.120;8.764;2023-07-28T07:28:16;100453.00;;;19.42;89.70
79705;BME280;69940;53.120;8.764;2023-07-28T07:30:45;100456.00;;;19.42;89.72
79705;BME280;69940;53.120;8.764;2023-07-28T07:33:15;100458.00;;;19.41;89.78
79705;BME280;69940;53.120;8.764;2023-07-28T07:35:46;100462.00;;;19.40;89.84
79705;BME280;69940;53.120;8.764;2023-07-28T07:38:15;100466.00;;;19.38;89.89
79705;BME280;69940;53.120;8.764;2023-07-28T07:40:49;100469.00;;;19.38;89.88
79705;BME280;69940;53.120;8.764;2023-07-28T07:43:20;100473.00;;;19.38;89.87
79705;BME280;69940;53.120;8.764;2023-07-28T07:45:48;100476.00;;;19.38;89.85
79705;BME280;69940;53.120;8.764;2023-07-28T07:48:16;100480.00;;;19.38;89.92
79705;BME280;69940;53.120;8.764;2023-07-28T07:50:45;100482.00;;;19.38;89.90
79705;BME280;69940;53.120;8.764;2023-07-28T07:53:16;100485.00;;;19.38;89.87
79705;BME280;69940;53.120;8.764;2023-07-28T07:55:46;100488.00;;;19.39;89.87
79705;BME280;69940;53.120;8.764;2023-07-28T07:58:16;100491.00;;;19.39;89.94
79705;BME280;69940;53.120;8.764;2023-07-28T08:00:46;100494.00;;;19.40;89.95
79705;BME280;69940;53.120;8.764;2023-07-28T08:03:16;100498.00;;;19.41;89.86
79705;BME280;69940;53.120;8.764;2023-07-28T08:05:46;100501.00;;;19.43;89.89
79705;BME280;69940;53.120;8.764;2023-07-28T08:08:20;100503.00;;;19.46;89.74
79705;BME280;69940;53.120;8.764;2023-07-28T08:10:46;100507.00;;;19.50;89.51
79705;BME280;69940;53.120;8.764;2023-07-28T08:13:16;100508.00;;;19.56;89.29
79705;BME280;69940;53.120;8.764;2023-07-28T08:15:46;100510.00;;;19.63;89.03
79705;BME280;69940;53.120;8.764;2023-07-28T08:18:16;100512.00;;;19.70;88.89
79705;BME280;69940;53.120;8.764;2023-07-28T08:20:45;100515.00;;;19.76;88.87
79705;BME280;69940;53.120;8.764;2023-07-28T08:23:16;100518.00;;;19.82;88.68
79705;BME280;69940;53.120;8.764;2023-07-28T08:25:49;100521.00;;;19.88;88.66
79705;BME280;69940;53.120;8.764;2023-07-28T08:28:16;100524.00;;;19.93;88.45
79705;BME280;69940;53.120;8.764;2023-07-28T08:30:54;100526.00;;;19.98;88.51
79705;BME280;69940;53.120;8.764;2023-07-28T08:33:15;100528.00;;;20.02;88.35
79705;BME280;69940;53.120;8.764;2023-07-28T08:35:46;100531.00;;;20.05;88.34
79705;BME280;69940;53.120;8.764;2023-07-28T08:38:16;100534.00;;;20.07;88.55
79705;BME280;69940;53.120;8.764;2023-07-28T08:40:46;100535.00;;;20.09;88.54
79705;BME280;69940;53.120;8.764;2023-07-28T08:43:16;100536.00;;;20.09;88.60
79705;BME280;69940;53.120;8.764;2023-07-28T08:45:46;100537.00;;;20.09;88.80
79705;BME280;69940;53.120;8.764;2023-07-28T08:48:16;100539.00;;;20.08;88.99
79705;BME280;69940;53.120;8.764;2023-07-28T08:50:46;100540.00;;;20.07;89.15
79705;BME280;69940;53.120;8.764;2023-07-28T08:53:16;100542.00;;;20.05;89.01
79705;BME280;69940;53.120;8.764;2023-07-28T08:55:46;100544.00;;;20.02;89.29
79705;BME280;69940;53.120;8.764;2023-07-28T08:58:21;100546.00;;;20.00;89.37
79705;BME280;69940;53.120;8.764;2023-07-28T09:00:51;100549.00;;;19.99;89.26
79705;BME280;69940;53.120;8.764;2023-07-28T09:03:16;100552.00;;;19.98;89.25
79705;BME280;69940;53.120;8.764;2023-07-28T09:05:47;100554.00;;;20.00;89.20
79705;BME280;69940;53.120;8.764;2023-07-28T09:08:16;100558.00;;;20.03;88.95
79705;BME280;69940;53.120;8.764;2023-07-28T09:10:48;100560.00;;;20.06;88.85
79705;BME280;69940;53.120;8.764;2023-07-28T09:13:17;100563.00;;;20.09;88.75
79705;BME280;69940;53.120;8.764;2023-07-28T09:15:46;100565.00;;;20.14;88.58
79705;BME280;69940;53.120;8.764;2023-07-28T09:18:17;100567.00;;;20.21;88.63
79705;BME280;69940;53.120;8.764;2023-07-28T09:20:46;100569.00;;;20.31;88.19
79705;BME280;69940;53.120;8.764;2023-07-28T09:23:16;100569.00;;;20.41;87.86
79705;BME280;69940;53.120;8.764;2023-07-28T09:25:46;100570.00;;;20.48;87.76
79705;BME280;69940;53.120;8.764;2023-07-28T09:28:16;100570.00;;;20.51;87.90
79705;BME280;69940;53.120;8.764;2023-07-28T09:30:49;100570.00;;;20.55;87.86
79705;BME280;69940;53.120;8.764;2023-07-28T09:33:35;100570.00;;;20.60;87.80
79705;BME280;69940;53.120;8.764;2023-07-28T09:35:50;100571.00;;;20.65;87.43
79705;BME280;69940;53.120;8.764;2023-07-28T09:38:18;100571.00;;;20.69;87.44
79705;BME280;69940;53.120;8.764;2023-07-28T09:40:46;100572.00;;;20.73;87.41
79705;BME280;69940;53.120;8.764;2023-07-28T09:43:16;100572.00;;;20.78;87.47
79705;BME280;69940;53.120;8.764;2023-07-28T09:45:47;100574.00;;;20.83;87.11
79705;BME280;69940;53.120;8.764;2023-07-28T09:48:17;100576.00;;;20.88;87.13
79705;BME280;69940;53.120;8.764;2023-07-28T09:50:45;100579.00;;;20.94;87.12
79705;BME280;69940;53.120;8.764;2023-07-28T09:53:17;100580.00;;;20.99;86.56
79705;BME280;69940;53.120;8.764;2023-07-28T09:55:47;100583.00;;;21.05;86.32
79705;BME280;69940;53.120;8.764;2023-07-28T09:58:17;100585.00;;;21.08;86.08
79705;BME280;69940;53.120;8.764;2023-07-28T10:00:47;100588.00;;;21.10;86.11
79705;BME280;69940;53.120;8.764;2023-07-28T10:03:17;100592.00;;;21.11;85.34
79705;BME280;69940;53.120;8.764;2023-07-28T10:05:46;100592.00;;;21.12;84.85
79705;BME280;69940;53.120;8.764;2023-07-28T10:08:16;100593.00;;;21.16;84.40
79705;BME280;69940;53.120;8.764;2023-07-28T10:10:47;100593.00;;;21.22;84.22
79705;BME280;69940;53.120;8.764;2023-07-28T10:13:19;100594.00;;;21.30;83.15
79705;BME280;69940;53.120;8.764;2023-07-28T10:15:46;100593.00;;;21.37;82.97
79705;BME280;69940;53.120;8.764;2023-07-28T10:18:17;100594.00;;;21.41;83.47
79705;BME280;69940;53.120;8.764;2023-07-28T10:20:50;100595.00;;;21.41;83.69
79705;BME280;69940;53.120;8.764;2023-07-28T10:23:24;100597.00;;;21.38;84.02
79705;BME280;69940;53.120;8.764;2023-07-28T10:25:57;100597.00;;;21.33;83.59
79705;BME280;69940;53.120;8.764;2023-07-28T10:28:26;100597.00;;;21.27;82.63
79705;BME280;69940;53.120;8.764;2023-07-28T10:30:53;100599.00;;;21.21;82.92
79705;BME280;69940;53.120;8.764;2023-07-28T10:33:36;100601.00;;;21.15;83.43
79705;BME280;69940;53.120;8.764;2023-07-28T10:35:48;100603.00;;;21.11;83.72
79705;BME280;69940;53.120;8.764;2023-07-28T10:38:28;100606.00;;;21.09;83.97
79705;BME280;69940;53.120;8.764;2023-07-28T10:40:50;100607.00;;;21.09;83.89
79705;BME280;69940;53.120;8.764;2023-07-28T10:43:16;100608.00;;;21.10;84.05
79705;BME280;69940;53.120;8.764;2023-07-28T10:45:46;100609.00;;;21.09;84.32
79705;BME280;69940;53.120;8.764;2023-07-28T10:48:16;100610.00;;;21.08;84.73
79705;BME280;69940;53.120;8.764;2023-07-28T10:50:45;100612.00;;;21.09;84.90
79705;BME280;69940;53.120;8.764;2023-07-28T10:53:16;100614.00;;;21.11;85.01
79705;BME280;69940;53.120;8.764;2023-07-28T10:55:46;100615.00;;;21.14;85.08
79705;BME280;69940;53.120;8.764;2023-07-28T10:58:16;100617.00;;;21.19;84.82
79705;BME280;69940;53.120;8.764;2023-07-28T11:00:46;100619.00;;;21.23;83.93
79705;BME280;69940;53.120;8.764;2023-07-28T11:03:16;100620.00;;;21.29;83.55
79705;BME280;69940;53.120;8.764;2023-07-28T11:05:48;100621.00;;;21.33;83.39
79705;BME280;69940;53.120;8.764;2023-07-28T11:08:16;100623.00;;;21.35;83.34
79705;BME280;69940;53.120;8.764;2023-07-28T11:10:46;100625.00;;;21.35;81.95
79705;BME280;69940;53.120;8.764;2023-07-28T11:13:16;100627.00;;;21.34;81.17
79705;BME280;69940;53.120;8.764;2023-07-28T11:15:46;100627.00;;;21.32;80.97
79705;BME280;69940;53.120;8.764;2023-07-28T11:18:16;100628.00;;;21.31;81.33
79705;BME280;69940;53.120;8.764;2023-07-28T11:20:45;100629.00;;;21.31;80.98
79705;BME280;69940;53.120;8.764;2023-07-28T11:23:16;100629.00;;;21.34;80.27
79705;BME280;69940;53.120;8.764;2023-07-28T11:25:48;100629.00;;;21.42;80.36
79705;BME280;69940;53.120;8.764;2023-07-28T11:28:16;100631.00;;;21.53;80.41
79705;BME280;69940;53.120;8.764;2023-07-28T11:30:48;100632.00;;;21.64;79.55
79705;BME280;69940;53.120;8.764;2023-07-28T11:33:16;100635.00;;;21.75;79.42
79705;BME280;69940;53.120;8.764;2023-07-28T11:35:46;100635.00;;;21.86;78.83
79705;BME280;69940;53.120;8.764;2023-07-28T11:38:16;100637.00;;;21.95;78.52
79705;BME280;69940;53.120;8.764;2023-07-28T11:40:46;100639.00;;;22.02;78.59
79705;BME280;69940;53.120;8.764;2023-07-28T11:43:16;100642.00;;;22.11;78.16
79705;BME280;69940;53.120;8.764;2023-07-28T11:45:46;100643.00;;;22.21;78.31
79705;BME280;69940;53.120;8.764;2023-07-28T11:48:17;100645.00;;;22.28;78.27
79705;BME280;69940;53.120;8.764;2023-07-28T11:50:46;100646.00;;;22.32;77.08
79705;BME280;69940;53.120;8.764;2023-07-28T11:53:16;100647.00;;;22.32;77.22
79705;BME280;69940;53.120;8.764;2023-07-28T11:55:46;100649.00;;;22.28;77.77
79705;BME280;69940;53.120;8.764;2023-07-28T11:58:16;100652.00;;;22.22;77.19
79705;BME280;69940;53.120;8.764;2023-07-28T12:00:46;100655.00;;;22.17;78.05
79705;BME280;69940;53.120;8.764;2023-07-28T12:03:16;100659.00;;;22.10;78.44
79705;BME280;69940;53.120;8.764;2023-07-28T12:06:05;100662.00;;;22.05;78.91
79705;BME280;69940;53.120;8.764;2023-07-28T12:08:15;100667.00;;;21.99;79.00
79705;BME280;69940;53.120;8.764;2023-07-28T12:10:54;100671.00;;;21.95;79.29
79705;BME280;69940;53.120;8.764;2023-07-28T12:13:16;100673.00;;;21.93;79.25
79705;BME280;69940;53.120;8.764;2023-07-28T12:15:46;100675.00;;;21.95;79.02
79705;BME280;69940;53.120;8.764;2023-07-28T12:18:16;100678.00;;;22.00;78.87
79705;BME280;69940;53.120;8.764;2023-07-28T12:20:49;100680.00;;;22.06;78.32
79705;BME280;69940;53.120;8.764;2023-07-28T12:23:18;100682.00;;;22.10;78.46
79705;BME280;69940;53.120;8.764;2023-07-28T12:25:46;100685.00;;;22.12;78.53
79705;BME280;69940;53.120;8.764;2023-07-28T12:28:16;100686.00;;;22.12;78.22
79705;BME280;69940;53.120;8.764;2023-07-28T12:30:46;100687.00;;;22.13;78.52
79705;BME280;69940;53.120;8.764;2023-07-28T12:33:16;100689.00;;;22.14;78.53
79705;BME280;69940;53.120;8.764;2023-07-28T12:35:46;100692.00;;;22.16;78.47
79705;BME280;69940;53.120;8.764;2023-07-28T12:38:16;100693.00;;;22.17;78.51
79705;BME280;69940;53.120;8.764;2023-07-28T12:40:46;100693.00;;;22.18;78.26
79705;BME280;69940;53.120;8.764;2023-07-28T12:43:16;100694.00;;;22.18;78.05
79705;BME280;69940;53.120;8.764;2023-07-28T12:45:46;100696.00;;;22.17;77.96
79705;BME280;69940;53.120;8.764;2023-07-28T12:48:15;100697.00;;;22.17;77.96
79705;BME280;69940;53.120;8.764;2023-07-28T12:50:46;100699.00;;;22.19;77.89
79705;BME280;69940;53.120;8.764;2023-07-28T12:53:16;100699.00;;;22.26;77.40
79705;BME280;69940;53.120;8.764;2023-07-28T12:55:46;100698.00;;;22.36;75.80
79705;BME280;69940;53.120;8.764;2023-07-28T12:58:16;100698.00;;;22.47;75.42
79705;BME280;69940;53.120;8.764;2023-07-28T13:00:46;100696.00;;;22.58;74.84
79705;BME280;69940;53.120;8.764;2023-07-28T13:03:16;100695.00;;;22.66;74.45
79705;BME280;69940;53.120;8.764;2023-07-28T13:05:49;100695.00;;;22.72;74.71